createdAt,value
2023-05-22T00:00:08.921Z,11.30
2023-05-22T00:02:43.852Z,11.30
2023-05-22T00:05:13.306Z,11.30
2023-05-22T00:07:43.294Z,11.70
2023-05-22T00:10:11.408Z,11.30
2023-05-22T00:12:38.955Z,11.70
2023-05-22T00:15:07.206Z,11.50
2023-05-22T00:17:34.845Z,11.30
2023-05-22T00:20:10.713Z,11.40
2023-05-22T00:22:39.079Z,11.30
2023-05-22T00:25:07.501Z,11.30
2023-05-22T00:27:35.131Z,11.30
2023-05-22T00:30:02.800Z,11.70
2023-05-22T00:32:30.383Z,11.80
2023-05-22T00:34:58.176Z,11.80
2023-05-22T00:37:26.017Z,11.80
2023-05-22T00:39:53.602Z,11.40
2023-05-22T00:42:21.320Z,11.90
2023-05-22T00:44:49.002Z,11.70
2023-05-22T00:47:16.621Z,11.80
2023-05-22T00:49:44.513Z,11.40
2023-05-22T00:52:14.613Z,11.40
2023-05-22T00:54:43.336Z,11.70
2023-05-22T00:57:11.031Z,11.60
2023-05-22T00:59:38.733Z,11.40
2023-05-22T01:02:06.758Z,11.80
2023-05-22T01:04:35.315Z,11.30
2023-05-22T01:07:03.105Z,11.50
2023-05-22T01:09:30.782Z,11.60
2023-05-22T01:12:07.248Z,11.40
2023-05-22T01:15:11.204Z,11.70
2023-05-22T01:18:11.297Z,11.60
2023-05-22T01:20:53.060Z,11.40
2023-05-22T01:23:45.686Z,11.40
2023-05-22T01:26:22.573Z,11.60
2023-05-22T01:28:50.217Z,11.50
2023-05-22T01:31:22.441Z,11.90
2023-05-22T01:33:53.418Z,11.40
2023-05-22T01:36:23.349Z,11.70
2023-05-22T01:38:52.895Z,11.80
2023-05-22T01:41:21.657Z,11.40
2023-05-22T01:43:49.389Z,11.40
2023-05-22T01:46:16.934Z,11.90
2023-05-22T01:48:44.572Z,11.90
2023-05-22T01:51:44.580Z,11.70
2023-05-22T01:54:18.318Z,11.70
2023-05-22T01:57:14.885Z,11.60
2023-05-22T02:00:02.511Z,11.80
2023-05-22T02:02:32.623Z,11.90
2023-05-22T02:05:03.922Z,11.60
2023-05-22T02:07:34.409Z,11.40
2023-05-22T02:10:03.146Z,11.70
2023-05-22T02:12:31.109Z,11.50
2023-05-22T02:14:58.814Z,11.50
2023-05-22T02:17:28.297Z,12.00
2023-05-22T02:19:55.900Z,12.00
2023-05-22T02:22:23.430Z,12.00
2023-05-22T02:24:51.514Z,12.10
2023-05-22T02:27:19.053Z,11.70
2023-05-22T02:29:46.683Z,12.10
2023-05-22T02:32:14.279Z,11.90
2023-05-22T02:34:42.270Z,11.70
2023-05-22T02:37:09.717Z,12.00
2023-05-22T02:39:37.249Z,11.70
2023-05-22T02:42:05.961Z,11.90
2023-05-22T02:44:33.506Z,12.00
2023-05-22T02:47:01.128Z,11.60
2023-05-22T02:49:28.755Z,11.80
2023-05-22T02:51:56.241Z,12.10
2023-05-22T02:54:23.777Z,11.50
2023-05-22T02:56:51.281Z,12.00
2023-05-22T02:59:18.788Z,12.00
2023-05-22T03:01:48.497Z,11.70
2023-05-22T03:04:16.262Z,11.70
2023-05-22T03:06:45.642Z,11.70
2023-05-22T03:09:13.266Z,12.10
2023-05-22T03:11:40.828Z,11.70
2023-05-22T03:14:08.836Z,11.80
2023-05-22T03:16:36.392Z,11.70
2023-05-22T03:19:14.874Z,11.60
2023-05-22T03:21:44.605Z,12.00
2023-05-22T03:24:15.356Z,11.90
2023-05-22T03:26:43.935Z,12.00
2023-05-22T03:29:17.863Z,11.70
2023-05-22T03:31:45.532Z,11.90
2023-05-22T03:34:16.637Z,11.70
2023-05-22T03:36:46.726Z,11.50
2023-05-22T03:39:16.540Z,11.50
2023-05-22T03:41:53.058Z,12.00
2023-05-22T03:44:21.157Z,11.60
2023-05-22T03:46:48.732Z,11.80
2023-05-22T03:49:16.331Z,11.70
2023-05-22T03:51:43.808Z,11.70
2023-05-22T03:54:11.484Z,12.10
2023-05-22T03:56:38.975Z,11.70
2023-05-22T03:59:06.489Z,11.70
2023-05-22T04:01:33.991Z,12.20
2023-05-22T04:04:02.112Z,11.70
2023-05-22T04:06:32.975Z,12.10
2023-05-22T04:09:01.191Z,11.70
2023-05-22T04:11:30.613Z,11.70
2023-05-22T04:14:03.624Z,11.80
2023-05-22T04:16:31.533Z,12.20
2023-05-22T04:18:59.377Z,11.70
2023-05-22T04:21:28.393Z,11.60
2023-05-22T04:23:55.913Z,11.70
2023-05-22T04:26:26.073Z,11.80
2023-05-22T04:28:54.588Z,11.60
2023-05-22T04:31:23.222Z,12.00
2023-05-22T04:33:50.901Z,11.70
2023-05-22T04:36:22.292Z,11.90
2023-05-22T04:38:51.045Z,12.20
2023-05-22T04:41:19.626Z,11.80
2023-05-22T04:43:50.817Z,12.30
2023-05-22T04:46:19.791Z,11.80
2023-05-22T04:48:47.379Z,12.00
2023-05-22T04:51:16.519Z,12.10
2023-05-22T04:53:44.373Z,12.20
2023-05-22T04:56:14.619Z,12.30
2023-05-22T04:58:44.147Z,12.30
2023-05-22T05:01:11.687Z,11.90
2023-05-22T05:03:39.902Z,12.00
2023-05-22T05:06:08.464Z,11.90
2023-05-22T05:08:36.128Z,12.30
2023-05-22T05:11:04.447Z,12.30
2023-05-22T05:13:32.069Z,11.90
2023-05-22T05:16:00.532Z,11.90
2023-05-22T05:18:28.325Z,12.40
2023-05-22T05:20:55.921Z,12.00
2023-05-22T05:23:23.521Z,12.00
2023-05-22T05:25:51.130Z,12.40
2023-05-22T05:28:18.823Z,12.00
2023-05-22T05:30:46.512Z,12.40
2023-05-22T05:33:34.232Z,12.30
2023-05-22T05:36:31.690Z,12.50
2023-05-22T05:38:59.464Z,12.10
2023-05-22T05:41:27.596Z,12.10
2023-05-22T05:44:03.367Z,12.10
2023-05-22T05:46:33.306Z,11.80
2023-05-22T05:49:02.027Z,11.60
2023-05-22T05:51:29.661Z,11.70
2023-05-22T05:53:57.259Z,11.50
2023-05-22T05:56:25.768Z,11.80
2023-05-22T05:58:53.329Z,11.60
2023-05-22T06:01:39.910Z,11.70
2023-05-22T06:04:14.153Z,11.30
2023-05-22T06:06:42.558Z,11.50
2023-05-22T06:09:10.427Z,11.50
2023-05-22T06:11:56.630Z,11.50
2023-05-22T06:14:25.120Z,11.70
2023-05-22T06:16:52.697Z,11.70
2023-05-22T06:19:21.038Z,11.80
2023-05-22T06:21:50.258Z,11.40
2023-05-22T06:24:19.385Z,11.40
2023-05-22T06:26:46.957Z,11.20
2023-05-22T06:29:15.168Z,11.30
2023-05-22T06:31:43.006Z,11.20
2023-05-22T06:34:10.822Z,11.30
2023-05-22T06:36:38.409Z,11.50
2023-05-22T06:39:05.964Z,11.40
2023-05-22T06:41:51.958Z,11.40
2023-05-22T06:44:20.303Z,11.40
2023-05-22T06:46:54.156Z,11.40
2023-05-22T06:49:24.740Z,11.40
2023-05-22T06:51:54.813Z,11.40
2023-05-22T06:54:23.000Z,11.50
2023-05-22T06:56:57.558Z,11.50
2023-05-22T06:59:27.720Z,11.60
2023-05-22T07:02:08.262Z,11.70
2023-05-22T07:04:58.356Z,11.80
2023-05-22T07:07:33.650Z,11.80
2023-05-22T07:10:01.257Z,11.70
2023-05-22T07:12:29.772Z,11.80
2023-05-22T07:15:54.868Z,11.80
2023-05-22T07:18:23.902Z,11.80
2023-05-22T07:20:51.919Z,11.90
2023-05-22T07:23:22.057Z,11.70
2023-05-22T07:25:50.956Z,11.70
2023-05-22T07:28:21.598Z,11.70
2023-05-22T07:30:55.202Z,11.80
2023-05-22T07:33:22.972Z,12.00
2023-05-22T07:35:51.905Z,11.80
2023-05-22T07:38:20.021Z,11.90
2023-05-22T07:40:56.946Z,11.90
2023-05-22T07:43:26.114Z,11.90
2023-05-22T07:45:54.295Z,12.10
2023-05-22T07:48:25.628Z,12.20
2023-05-22T07:50:53.238Z,12.30
2023-05-22T07:53:20.941Z,12.30
2023-05-22T07:55:51.324Z,12.40
2023-05-22T07:58:19.734Z,12.50
2023-05-22T08:00:48.241Z,12.40
2023-05-22T08:03:17.754Z,12.60
2023-05-22T08:05:46.442Z,12.70
2023-05-22T08:08:14.078Z,12.70
2023-05-22T08:11:01.867Z,12.80
2023-05-22T08:13:29.648Z,12.90
2023-05-22T08:16:00.110Z,12.80
2023-05-22T08:18:29.564Z,12.80
2023-05-22T08:20:57.672Z,12.90
2023-05-22T08:23:25.381Z,12.70
2023-05-22T08:25:52.817Z,12.60
2023-05-22T08:28:20.373Z,12.60
2023-05-22T08:30:48.064Z,12.60
2023-05-22T08:33:15.578Z,12.60
2023-05-22T08:35:43.073Z,12.60
2023-05-22T08:38:10.639Z,12.60
2023-05-22T08:40:40.782Z,12.70
2023-05-22T08:43:09.653Z,12.60
2023-05-22T08:45:37.734Z,12.60
2023-05-22T08:48:06.322Z,12.60
2023-05-22T08:50:40.046Z,12.50
2023-05-22T08:53:11.457Z,12.60
2023-05-22T08:55:39.465Z,12.30
2023-05-22T08:58:08.534Z,12.30
2023-05-22T09:00:36.445Z,12.40
2023-05-22T09:03:06.758Z,12.40
2023-05-22T09:05:34.489Z,12.50
2023-05-22T09:08:16.046Z,12.40
2023-05-22T09:10:44.271Z,12.50
2023-05-22T09:13:23.209Z,12.40
2023-05-22T09:15:50.750Z,12.40
2023-05-22T09:18:18.329Z,12.40
2023-05-22T09:20:46.007Z,12.50
2023-05-22T09:23:17.791Z,12.40
2023-05-22T09:25:46.560Z,12.40
2023-05-22T09:28:14.365Z,12.40
2023-05-22T09:30:42.620Z,12.30
2023-05-22T09:33:14.299Z,12.40
2023-05-22T09:35:42.297Z,12.40
2023-05-22T09:38:12.309Z,12.50
2023-05-22T09:40:41.263Z,12.60
2023-05-22T09:43:09.961Z,12.70
2023-05-22T09:45:38.953Z,12.80
2023-05-22T09:48:08.667Z,12.90
2023-05-22T09:50:37.205Z,12.90
2023-05-22T09:53:05.834Z,12.90
2023-05-22T09:55:34.844Z,13.00
2023-05-22T09:58:05.424Z,13.10
2023-05-22T10:00:35.292Z,13.10
2023-05-22T10:03:09.110Z,13.20
2023-05-22T10:05:40.974Z,13.30
2023-05-22T10:08:15.035Z,13.20
2023-05-22T10:10:46.483Z,13.20
2023-05-22T10:13:15.077Z,13.20
2023-05-22T10:15:43.252Z,13.30
2023-05-22T10:18:11.841Z,13.50
2023-05-22T10:20:39.834Z,13.40
2023-05-22T10:23:09.453Z,13.70
2023-05-22T10:25:39.927Z,13.80
2023-05-22T10:28:08.832Z,14.10
2023-05-22T10:31:11.256Z,14.30
2023-05-22T10:34:01.612Z,14.40
2023-05-22T10:36:58.153Z,14.70
2023-05-22T10:39:54.588Z,14.60
2023-05-22T10:42:22.182Z,15.10
2023-05-22T10:44:50.068Z,15.30
2023-05-22T10:47:17.794Z,15.10
2023-05-22T10:49:45.571Z,15.00
2023-05-22T10:52:18.514Z,15.00
2023-05-22T10:54:49.221Z,14.70
2023-05-22T10:57:17.831Z,14.60
2023-05-22T10:59:47.839Z,14.60
2023-05-22T11:02:29.346Z,14.50
2023-05-22T11:05:18.939Z,14.20
2023-05-22T11:07:46.511Z,14.10
2023-05-22T11:10:14.078Z,14.00
2023-05-22T11:12:41.754Z,13.60
2023-05-22T11:15:10.528Z,13.50
2023-05-22T11:17:51.494Z,13.70
2023-05-22T11:20:28.419Z,13.90
2023-05-22T11:23:08.267Z,13.90
2023-05-22T11:25:37.592Z,13.80
2023-05-22T11:28:06.256Z,13.70
2023-05-22T11:30:35.177Z,13.70
2023-05-22T11:33:03.254Z,13.90
2023-05-22T11:35:31.405Z,14.00
2023-05-22T11:37:58.999Z,14.00
2023-05-22T11:40:29.602Z,13.90
2023-05-22T11:42:57.612Z,14.10
2023-05-22T11:45:25.933Z,13.90
2023-05-22T11:47:53.575Z,13.90
2023-05-22T11:50:40.286Z,14.00
2023-05-22T11:53:09.557Z,14.10
2023-05-22T11:55:37.020Z,14.00
2023-05-22T11:58:04.610Z,14.00
2023-05-22T12:00:32.546Z,14.10
2023-05-22T12:03:00.358Z,14.10
2023-05-22T12:05:28.206Z,14.10
2023-05-22T12:07:56.028Z,14.40
2023-05-22T12:10:25.468Z,14.30
2023-05-22T12:12:53.036Z,14.60
2023-05-22T12:15:21.241Z,14.90
2023-05-22T12:17:48.952Z,15.10
2023-05-22T12:20:16.800Z,15.20
2023-05-22T12:22:44.487Z,15.20
2023-05-22T12:25:20.060Z,15.20
2023-05-22T12:27:47.983Z,15.10
2023-05-22T12:30:16.925Z,15.30
2023-05-22T12:32:49.351Z,15.40
2023-05-22T12:35:18.282Z,15.20
2023-05-22T12:37:50.777Z,15.20
2023-05-22T12:40:18.606Z,15.10
2023-05-22T12:42:46.303Z,15.00
2023-05-22T12:45:14.133Z,15.20
2023-05-22T12:47:41.741Z,15.40
2023-05-22T12:50:09.523Z,15.60
2023-05-22T12:52:37.091Z,15.50
2023-05-22T12:55:04.924Z,15.80
2023-05-22T12:57:32.474Z,16.00
2023-05-22T13:00:00.099Z,16.20
2023-05-22T13:02:27.727Z,15.90
2023-05-22T13:04:55.399Z,15.70
2023-05-22T13:07:22.932Z,16.00
2023-05-22T13:09:50.531Z,16.10
2023-05-22T13:12:19.421Z,15.90
2023-05-22T13:14:47.185Z,16.00
2023-05-22T13:17:14.715Z,16.10
2023-05-22T13:19:42.293Z,16.30
2023-05-22T13:22:09.873Z,16.40
2023-05-22T13:24:37.387Z,16.60
2023-05-22T13:27:04.990Z,16.10
2023-05-22T13:29:33.298Z,16.10
2023-05-22T13:32:01.527Z,16.10
2023-05-22T13:34:29.752Z,16.20
2023-05-22T13:36:57.483Z,16.30
2023-05-22T13:39:25.081Z,16.50
2023-05-22T13:41:53.369Z,16.60
2023-05-22T13:44:21.422Z,16.80
2023-05-22T13:46:49.253Z,16.90
2023-05-22T13:49:16.975Z,17.10
2023-05-22T13:51:44.573Z,17.00
2023-05-22T13:54:12.196Z,16.90
2023-05-22T13:56:39.639Z,17.00
2023-05-22T13:59:09.224Z,17.20
2023-05-22T14:01:37.058Z,17.30
2023-05-22T14:04:05.269Z,17.30
2023-05-22T14:06:33.204Z,17.30
2023-05-22T14:09:00.967Z,17.40
2023-05-22T14:11:28.539Z,17.40
2023-05-22T14:13:56.177Z,17.40
2023-05-22T14:16:23.838Z,17.10
2023-05-22T14:18:51.585Z,17.10
2023-05-22T14:21:19.623Z,17.10
2023-05-22T14:23:47.286Z,17.10
2023-05-22T14:26:15.323Z,17.10
2023-05-22T14:28:43.345Z,16.90
2023-05-22T14:31:10.960Z,16.90
2023-05-22T14:33:38.519Z,16.90
2023-05-22T14:36:06.391Z,16.80
2023-05-22T14:38:34.498Z,16.70
2023-05-22T14:41:02.461Z,16.70
2023-05-22T14:43:30.097Z,16.70
2023-05-22T14:45:59.209Z,16.80
2023-05-22T14:48:29.332Z,16.90
2023-05-22T14:50:57.429Z,16.80
2023-05-22T14:53:25.066Z,16.70
2023-05-22T14:55:52.720Z,16.90
2023-05-22T14:58:20.283Z,16.80
2023-05-22T15:00:47.759Z,16.60
2023-05-22T15:03:15.353Z,16.70
2023-05-22T15:05:42.909Z,16.60
2023-05-22T15:08:10.633Z,16.60
2023-05-22T15:10:40.392Z,16.70
2023-05-22T15:13:07.975Z,16.70
2023-05-22T15:15:35.517Z,16.80
2023-05-22T15:18:04.942Z,16.60
2023-05-22T15:20:32.589Z,16.70
2023-05-22T15:23:00.654Z,16.40
2023-05-22T15:25:28.368Z,16.70
2023-05-22T15:27:55.972Z,16.80
2023-05-22T15:30:23.750Z,16.60
2023-05-22T15:32:51.373Z,16.50
2023-05-22T15:35:19.131Z,16.60
2023-05-22T15:37:46.670Z,16.70
2023-05-22T15:40:17.431Z,16.70
2023-05-22T15:42:45.070Z,16.60
2023-05-22T15:45:12.589Z,16.50
2023-05-22T15:47:40.107Z,16.20
2023-05-22T15:50:07.924Z,16.20
2023-05-22T15:52:35.676Z,16.30
2023-05-22T15:55:03.329Z,16.20
2023-05-22T15:57:30.969Z,15.80
2023-05-22T15:59:58.578Z,15.40
2023-05-22T16:02:26.793Z,15.10
2023-05-22T16:04:54.657Z,14.90
2023-05-22T16:07:22.476Z,14.80
2023-05-22T16:09:50.487Z,14.50
2023-05-22T16:12:18.544Z,14.20
2023-05-22T16:14:46.147Z,14.30
2023-05-22T16:17:13.882Z,14.20
2023-05-22T16:19:41.601Z,14.20
2023-05-22T16:22:10.008Z,14.10
2023-05-22T16:24:37.725Z,14.00
2023-05-22T16:27:05.601Z,13.90
2023-05-22T16:29:33.393Z,13.90
2023-05-22T16:32:01.361Z,13.70
2023-05-22T16:34:30.040Z,13.70
2023-05-22T16:36:57.810Z,13.80
2023-05-22T16:39:26.806Z,13.80
2023-05-22T16:41:54.326Z,13.70
2023-05-22T16:44:21.916Z,13.70
2023-05-22T16:46:49.942Z,13.90
2023-05-22T16:49:17.500Z,13.90
2023-05-22T16:51:45.117Z,14.00
2023-05-22T16:54:12.788Z,13.90
2023-05-22T16:56:40.569Z,13.90
2023-05-22T16:59:08.143Z,14.00
2023-05-22T17:01:36.170Z,14.00
2023-05-22T17:04:03.873Z,13.90
2023-05-22T17:06:31.866Z,13.90
2023-05-22T17:08:59.565Z,14.00
2023-05-22T17:11:27.371Z,13.90
2023-05-22T17:13:54.974Z,14.00
2023-05-22T17:16:22.563Z,13.80
2023-05-22T17:18:50.784Z,13.80
2023-05-22T17:21:20.682Z,13.80
2023-05-22T17:23:48.652Z,13.90
2023-05-22T17:26:16.643Z,14.20
2023-05-22T17:28:44.679Z,14.30
2023-05-22T17:31:12.216Z,14.50
2023-05-22T17:33:39.947Z,14.70
2023-05-22T17:36:07.689Z,14.70
2023-05-22T17:38:35.363Z,14.70
2023-05-22T17:41:02.860Z,14.70
2023-05-22T17:43:30.515Z,14.60
2023-05-22T17:45:58.508Z,14.70
2023-05-22T17:48:27.196Z,14.80
2023-05-22T17:50:55.394Z,14.90
2023-05-22T17:53:23.146Z,15.00
2023-05-22T17:55:52.547Z,15.00
2023-05-22T17:58:21.089Z,14.90
2023-05-22T18:00:49.224Z,14.90
2023-05-22T18:03:21.294Z,15.00
2023-05-22T18:05:49.597Z,15.20
2023-05-22T18:08:17.954Z,15.10
2023-05-22T18:10:45.500Z,15.20
2023-05-22T18:13:13.105Z,14.90
2023-05-22T18:15:40.983Z,14.90
2023-05-22T18:18:10.010Z,14.80
2023-05-22T18:20:39.267Z,14.80
2023-05-22T18:23:07.042Z,14.70
2023-05-22T18:25:34.563Z,14.60
2023-05-22T18:28:02.168Z,14.50
2023-05-22T18:30:29.783Z,14.40
2023-05-22T18:32:57.402Z,14.20
2023-05-22T18:35:25.062Z,14.30
2023-05-22T18:37:52.573Z,14.40
2023-05-22T18:40:20.188Z,14.40
2023-05-22T18:42:47.632Z,14.40
2023-05-22T18:45:15.316Z,14.40
2023-05-22T18:47:42.841Z,14.40
2023-05-22T18:50:11.008Z,14.30
2023-05-22T18:52:39.998Z,14.30
2023-05-22T18:55:07.786Z,14.40
2023-05-22T18:57:35.335Z,14.30
2023-05-22T19:00:02.928Z,14.30
2023-05-22T19:02:30.517Z,14.20
2023-05-22T19:04:58.143Z,14.10
2023-05-22T19:07:25.722Z,14.10
2023-05-22T19:09:53.380Z,14.10
2023-05-22T19:12:21.013Z,14.00
2023-05-22T19:14:48.539Z,14.00
2023-05-22T19:17:16.234Z,13.80
2023-05-22T19:19:43.892Z,13.80
2023-05-22T19:22:11.658Z,13.80
2023-05-22T19:24:39.250Z,13.70
2023-05-22T19:27:06.944Z,13.70
2023-05-22T19:29:34.499Z,13.70
2023-05-22T19:32:02.108Z,13.80
2023-05-22T19:34:29.593Z,13.70
2023-05-22T19:36:57.943Z,13.60
2023-05-22T19:39:25.960Z,13.70
2023-05-22T19:41:54.586Z,13.70
2023-05-22T19:44:22.499Z,13.70
2023-05-22T19:46:50.235Z,13.60
2023-05-22T19:49:17.810Z,13.60
2023-05-22T19:51:46.181Z,13.50
2023-05-22T19:54:13.844Z,13.60
2023-05-22T19:56:41.419Z,13.60
2023-05-22T19:59:08.864Z,13.50
2023-05-22T20:01:36.680Z,13.40
2023-05-22T20:04:04.380Z,13.40
2023-05-22T20:06:33.661Z,13.40
2023-05-22T20:09:01.993Z,13.40
2023-05-22T20:11:29.952Z,13.40
2023-05-22T20:13:57.725Z,13.30
2023-05-22T20:16:29.158Z,13.30
2023-05-22T20:18:57.238Z,13.30
2023-05-22T20:21:24.887Z,13.20
2023-05-22T20:23:52.994Z,13.20
2023-05-22T20:26:20.612Z,13.20
2023-05-22T20:28:48.215Z,13.10
2023-05-22T20:31:16.122Z,13.00
2023-05-22T20:33:43.911Z,12.90
2023-05-22T20:36:12.100Z,12.90
2023-05-22T20:38:42.616Z,12.80
2023-05-22T20:41:12.947Z,12.80
2023-05-22T20:43:43.424Z,12.70
2023-05-22T20:46:11.369Z,12.60
2023-05-22T20:48:38.886Z,12.50
2023-05-22T20:51:06.667Z,12.50
2023-05-22T20:53:34.236Z,12.50
2023-05-22T20:56:02.226Z,12.40
2023-05-22T20:58:29.966Z,12.40
2023-05-22T21:00:57.797Z,12.40
2023-05-22T21:03:26.068Z,12.30
2023-05-22T21:05:53.933Z,12.40
2023-05-22T21:08:21.657Z,12.40
2023-05-22T21:10:49.369Z,12.40
2023-05-22T21:13:16.895Z,12.30
2023-05-22T21:15:44.376Z,12.40
2023-05-22T21:18:12.181Z,12.40
2023-05-22T21:20:40.043Z,12.40
2023-05-22T21:23:07.922Z,12.40
2023-05-22T21:25:36.492Z,12.30
2023-05-22T21:28:04.267Z,12.20
2023-05-22T21:30:31.946Z,12.20
2023-05-22T21:32:59.675Z,12.10
2023-05-22T21:35:27.259Z,12.00
2023-05-22T21:37:54.794Z,12.00
2023-05-22T21:40:22.512Z,12.00
2023-05-22T21:42:50.110Z,11.70
2023-05-22T21:45:17.657Z,11.80
2023-05-22T21:47:45.307Z,11.80
2023-05-22T21:50:12.848Z,11.90
2023-05-22T21:52:40.510Z,11.90
2023-05-22T21:55:08.538Z,12.00
2023-05-22T21:57:36.547Z,12.00
2023-05-22T22:00:04.569Z,11.80
2023-05-22T22:02:32.637Z,11.70
2023-05-22T22:05:00.246Z,11.70
2023-05-22T22:07:27.862Z,11.90
2023-05-22T22:09:55.517Z,11.80
2023-05-22T22:12:23.084Z,11.80
2023-05-22T22:14:50.651Z,11.80
2023-05-22T22:17:18.149Z,11.70
2023-05-22T22:19:45.651Z,11.70
2023-05-22T22:22:13.105Z,11.70
2023-05-22T22:24:40.969Z,11.60
2023-05-22T22:27:08.541Z,11.60
2023-05-22T22:29:36.252Z,11.30
2023-05-22T22:32:04.029Z,11.30
2023-05-22T22:34:31.578Z,11.30
2023-05-22T22:36:59.063Z,11.20
2023-05-22T22:39:26.643Z,11.30
2023-05-22T22:41:54.324Z,11.40
2023-05-22T22:44:21.902Z,11.20
2023-05-22T22:46:49.732Z,11.20
2023-05-22T22:49:17.603Z,11.20
2023-05-22T22:51:45.154Z,11.10
2023-05-22T22:54:15.250Z,11.00
2023-05-22T22:56:43.285Z,11.00
2023-05-22T22:59:10.771Z,11.00
2023-05-22T23:01:38.396Z,11.00
2023-05-22T23:04:05.963Z,11.00
2023-05-22T23:06:34.688Z,11.00
2023-05-22T23:11:37.464Z,10.80
2023-05-22T23:14:07.831Z,10.80
2023-05-22T23:16:42.210Z,10.80
2023-05-22T23:19:11.519Z,10.80
2023-05-22T23:21:39.073Z,10.80
2023-05-22T23:24:06.991Z,10.70
2023-05-22T23:26:34.676Z,10.70
2023-05-22T23:29:02.453Z,10.80
2023-05-22T23:31:32.900Z,10.60
2023-05-22T23:34:00.466Z,10.60
2023-05-22T23:36:29.011Z,10.60
2023-05-22T23:38:56.541Z,10.60
2023-05-22T23:41:24.943Z,10.70
2023-05-22T23:43:52.485Z,10.70
2023-05-22T23:46:21.300Z,10.70
2023-05-22T23:48:48.958Z,10.50
2023-05-22T23:51:17.028Z,10.60
2023-05-22T23:53:44.833Z,10.70
2023-05-22T23:56:12.352Z,10.70
2023-05-22T23:58:40.173Z,10.70
